Woodford, Wisconsin
Current Conditions -  °F | °C
As of 3:15 AM on Friday 31 Oct 2014 (Local Time) from KEFT Reporting Station
Overcast Overcast  
Wind Chill: 26°   Ceiling: 4800
Heat Index: 36°   Visibility: 10mi
Dew Point: 27°   Wind: 16mph
Humidity: 70%   Direction: 330°NNW
Pressure: 30.11"   Gusts: 32mph
Location:  42.65°N, 89.86°W
Report Text: KEFT 310815Z AUTO 33014G28KT 10SM SCT038 BKN048 OVC055 02/M03 A3011 RMK AO2
Loading
Personal Weather Stations






























Interactive Weather Map
Tropical Storm Tracking
New forecast layout! Learn more

10-Day Weather Forecast

Advertisements
Track Severe Weather on mobile